Time;durP1;ratioP1;P1;durP2;ratioP2;P2;SDS_P1;SDS_P2;PMS_P1;PMS_P2;Temp;Humidity;BMP_temperature;BMP_pressure;BME280_temperature;BME280_humidity;BME280_pressure;Samples;Min_cycle;Max_cycle;Signal;HPM_P1;HPM_P2
2024/01/29 00:01:19;;;;;;;9.73;7.43;;;;;;;3.31;61.05;96488.97;4990169;28;20671;-72
2024/01/29 00:03:46;;;;;;;10.30;7.67;;;;;;;3.36;61.08;96480.91;4989107;28;20231;-73
2024/01/29 00:06:11;;;;;;;10.03;7.67;;;;;;;3.35;60.70;96478.41;4984950;28;20220;-72
2024/01/29 00:08:37;;;;;;;8.60;7.67;;;;;;;3.31;61.24;96488.97;4988646;28;20304;-72
2024/01/29 00:11:02;;;;;;;8.90;7.97;;;;;;;3.43;60.48;96489.28;4985317;28;20238;-72
2024/01/29 00:13:28;;;;;;;10.10;7.47;;;;;;;3.46;60.45;96484.78;4992243;28;20227;-72
2024/01/29 00:15:53;;;;;;;9.37;7.87;;;;;;;3.40;60.66;96481.63;4993149;28;20220;-73
2024/01/29 00:18:19;;;;;;;11.93;7.53;;;;;;;3.41;60.48;96488.50;4991412;28;20215;-73
2024/01/29 00:20:44;;;;;;;7.73;6.87;;;;;;;3.36;60.65;96490.47;4994192;28;20228;-73
2024/01/29 00:23:10;;;;;;;9.07;7.73;;;;;;;3.41;60.72;96491.09;5005349;28;20257;-73
2024/01/29 00:25:35;;;;;;;9.23;7.60;;;;;;;3.35;61.17;96489.66;4991675;28;20222;-73
2024/01/29 00:28:00;;;;;;;10.27;7.30;;;;;;;3.42;60.74;96493.66;4989523;28;20220;-73
2024/01/29 00:30:26;;;;;;;9.90;7.47;;;;;;;3.41;61.08;96498.91;4990194;28;20315;-73
2024/01/29 00:32:51;;;;;;;9.70;7.10;;;;;;;3.42;60.83;96493.66;4998605;28;20231;-73
2024/01/29 00:35:17;;;;;;;8.83;7.17;;;;;;;3.47;60.67;96498.63;4983703;28;20184;-73
2024/01/29 00:37:42;;;;;;;9.97;7.60;;;;;;;3.46;60.57;96497.78;4979399;28;20199;-73
2024/01/29 00:40:08;;;;;;;9.90;7.57;;;;;;;3.43;60.72;96497.09;4985111;28;20311;-73
2024/01/29 00:42:33;;;;;;;9.07;7.77;;;;;;;3.44;61.17;96491.78;4969694;28;20223;-72
2024/01/29 00:44:59;;;;;;;9.63;7.23;;;;;;;3.36;60.60;96495.69;4983225;28;20229;-72
2024/01/29 00:47:24;;;;;;;10.10;7.60;;;;;;;3.34;60.74;96490.53;4981022;28;20187;-72
2024/01/29 00:49:50;;;;;;;10.23;6.87;;;;;;;3.41;60.83;96488.50;5006834;28;20202;-72
2024/01/29 00:52:15;;;;;;;9.57;7.33;;;;;;;3.48;60.59;96497.72;5019103;28;20223;-72
2024/01/29 00:54:40;;;;;;;8.70;6.70;;;;;;;3.53;60.27;96500.94;4997844;28;20220;-72
2024/01/29 00:57:06;;;;;;;11.03;7.43;;;;;;;3.50;60.44;96498.47;4989041;28;20240;-72
2024/01/29 00:59:31;;;;;;;8.03;7.20;;;;;;;3.40;60.92;96502.44;4990441;28;20211;-72
2024/01/29 01:01:57;;;;;;;9.97;7.50;;;;;;;3.43;60.52;96502.28;4985665;28;20187;-70
2024/01/29 01:04:22;;;;;;;10.83;7.47;;;;;;;3.51;60.61;96515.78;4992199;28;20227;-69
2024/01/29 01:06:48;;;;;;;9.13;7.20;;;;;;;3.51;60.40;96505.38;4995127;28;20215;-69
2024/01/29 01:09:14;;;;;;;8.33;6.97;;;;;;;3.48;60.33;96495.94;4989296;28;20215;-70
2024/01/29 01:11:41;;;;;;;8.47;7.33;;;;;;;3.37;60.60;96506.03;4994438;28;20240;-70
2024/01/29 01:14:06;;;;;;;9.50;7.00;;;;;;;3.50;60.75;96503.66;5006858;28;20268;-70
2024/01/29 01:16:32;;;;;;;8.67;7.40;;;;;;;3.38;60.88;96509.47;4993177;28;20219;-70
2024/01/29 01:18:57;;;;;;;10.60;7.03;;;;;;;3.43;60.90;96503.13;4988959;28;20222;-70
2024/01/29 01:24:07;;;;;;;10.37;7.50;;;;;;;3.37;60.74;96511.22;4984241;28;20226;-70
2024/01/29 01:26:32;;;;;;;11.70;7.63;;;;;;;3.42;61.03;96506.66;4991560;28;20192;-70
2024/01/29 01:28:57;;;;;;;7.80;7.00;;;;;;;3.43;60.75;96507.50;4983848;28;20183;-71
2024/01/29 01:31:23;;;;;;;8.50;6.97;;;;;;;3.56;60.78;96508.59;4979248;28;20223;-70
2024/01/29 01:33:48;;;;;;;8.33;6.30;;;;;;;3.46;60.44;96505.56;4980453;28;20227;-70
2024/01/29 01:36:14;;;;;;;9.30;6.50;;;;;;;3.36;61.11;96498.28;4987732;28;20240;-70
2024/01/29 01:38:39;;;;;;;9.57;7.23;;;;;;;3.45;60.63;96496.09;4987951;28;20226;-69
2024/01/29 01:41:05;;;;;;;7.77;6.97;;;;;;;3.39;61.01;96491.16;4991900;28;20180;-70
2024/01/29 01:43:30;;;;;;;10.13;7.30;;;;;;;3.51;60.74;96494.97;4996730;28;20223;-70
2024/01/29 01:46:05;;;;;;;9.53;7.57;;;;;;;3.51;60.65;96495.81;4990983;28;20215;-70
2024/01/29 01:48:32;;;;;;;8.67;7.70;;;;;;;3.36;60.90;96491.31;4999022;28;20226;-70
2024/01/29 01:50:58;;;;;;;9.57;7.17;;;;;;;3.34;61.11;96493.13;4970727;28;20388;-70
2024/01/29 01:53:24;;;;;;;7.67;6.60;;;;;;;3.24;61.41;96500.53;4986123;28;20275;-70
2024/01/29 01:55:50;;;;;;;9.60;7.03;;;;;;;3.28;61.25;96498.63;5000175;28;20203;-70
2024/01/29 01:58:18;;;;;;;10.07;7.10;;;;;;;3.24;61.32;96497.09;4988700;28;20223;-70
2024/01/29 02:00:44;;;;;;;9.60;7.17;;;;;;;3.45;60.97;96500.47;4992509;28;20238;-70
2024/01/29 02:03:09;;;;;;;9.10;7.57;;;;;;;3.46;60.83;96502.97;4993835;28;20228;-70
2024/01/29 02:05:36;;;;;;;9.43;8.07;;;;;;;3.44;60.84;96503.97;4998462;28;20196;-69
2024/01/29 02:08:03;;;;;;;10.30;8.00;;;;;;;3.21;61.66;96503.28;4993419;28;20211;-69
2024/01/29 02:10:29;;;;;;;9.00;7.00;;;;;;;3.33;61.47;96496.66;4990417;28;20331;-69
2024/01/29 02:12:55;;;;;;;10.90;7.47;;;;;;;3.30;61.22;96502.00;4994368;28;20223;-70
2024/01/29 02:15:20;;;;;;;10.43;7.33;;;;;;;3.16;61.58;96502.66;4995389;28;20302;-69
2024/01/29 02:17:46;;;;;;;10.00;8.27;;;;;;;3.39;61.43;96501.56;4988844;28;20303;-71
2024/01/29 02:20:13;;;;;;;8.43;6.67;;;;;;;3.45;60.76;96508.28;4989137;28;20247;-69
2024/01/29 02:22:46;;;;;;;7.83;7.03;;;;;;;3.41;61.05;96504.09;5006544;28;20248;-69
2024/01/29 02:25:15;;;;;;;9.87;7.30;;;;;;;3.43;60.81;96495.31;4997210;28;20223;-69
2024/01/29 02:27:40;;;;;;;10.23;7.53;;;;;;;3.45;60.66;96503.91;4989786;28;20211;-71
2024/01/29 02:30:06;;;;;;;11.73;7.80;;;;;;;3.42;60.92;96505.78;4989834;28;20239;-69
2024/01/29 02:32:31;;;;;;;8.07;7.23;;;;;;;3.42;60.61;96495.38;4980847;28;20272;-72
2024/01/29 02:34:57;;;;;;;11.77;7.50;;;;;;;3.38;60.72;96499.06;4994279;28;20258;-72
2024/01/29 02:37:22;;;;;;;10.67;7.67;;;;;;;3.45;60.78;96501.31;4993722;28;20231;-72
2024/01/29 02:39:50;;;;;;;7.80;6.67;;;;;;;3.63;60.40;96515.19;4990624;28;20314;-73
2024/01/29 02:42:17;;;;;;;9.27;7.10;;;;;;;3.61;60.28;96510.97;4990049;28;20315;-73
2024/01/29 02:44:43;;;;;;;8.87;7.23;;;;;;;3.59;60.33;96505.00;4979424;28;20216;-72
2024/01/29 02:47:08;;;;;;;9.20;7.33;;;;;;;3.53;60.25;96514.78;4991886;28;20180;-72
2024/01/29 02:49:34;;;;;;;11.07;7.03;;;;;;;3.53;60.55;96512.19;4993011;28;20226;-72
2024/01/29 02:51:59;;;;;;;9.23;7.07;;;;;;;3.50;60.37;96506.28;4984207;28;20330;-73
2024/01/29 02:54:25;;;;;;;8.27;7.40;;;;;;;3.65;60.43;96512.50;4991727;28;20278;-73
2024/01/29 02:56:50;;;;;;;8.70;7.20;;;;;;;3.69;59.98;96517.50;4990861;28;20324;-73
2024/01/29 02:59:15;;;;;;;9.23;7.27;;;;;;;3.46;60.40;96510.78;4993576;28;20235;-73
2024/01/29 03:01:41;;;;;;;10.47;6.90;;;;;;;3.45;60.56;96513.47;5023701;28;20203;-73
2024/01/29 03:04:06;;;;;;;8.97;6.50;;;;;;;3.57;59.85;96519.84;4997023;28;20230;-73
2024/01/29 03:06:32;;;;;;;9.20;6.90;;;;;;;3.46;60.56;96521.19;4993823;28;20223;-73
2024/01/29 03:08:57;;;;;;;8.17;6.70;;;;;;;3.52;60.74;96510.47;4992125;28;20220;-73
2024/01/29 03:11:23;;;;;;;9.33;7.70;;;;;;;3.52;60.65;96514.84;4995621;28;20239;-71
2024/01/29 03:13:48;;;;;;;8.47;7.10;;;;;;;3.56;60.66;96520.78;4991800;28;20195;-71
2024/01/29 03:16:14;;;;;;;8.03;7.17;;;;;;;3.59;60.72;96507.63;4984406;28;20217;-72
2024/01/29 03:18:39;;;;;;;10.40;7.57;;;;;;;3.49;60.35;96513.22;4986988;28;20227;-72
2024/01/29 03:21:04;;;;;;;9.47;7.03;;;;;;;3.47;60.61;96509.00;4982404;28;20223;-72
2024/01/29 03:23:30;;;;;;;8.20;7.17;;;;;;;3.58;60.41;96503.31;5004060;28;20188;-72
2024/01/29 03:25:55;;;;;;;10.20;7.47;;;;;;;3.65;59.73;96510.75;4993881;28;20187;-73
2024/01/29 03:28:21;;;;;;;8.53;6.83;;;;;;;3.56;60.58;96507.75;4991357;28;20219;-73
2024/01/29 03:30:46;;;;;;;12.63;10.27;;;;;;;3.65;60.81;96512.50;5005087;28;20222;-73
2024/01/29 03:33:12;;;;;;;13.37;10.30;;;;;;;3.54;61.43;96505.22;4989709;28;20237;-73
2024/01/29 03:35:37;;;;;;;14.73;11.77;;;;;;;3.68;61.63;96512.38;4988398;28;20224;-73
2024/01/29 03:38:03;;;;;;;15.00;12.10;;;;;;;3.53;61.64;96512.19;5001458;28;20188;-73
2024/01/29 03:40:28;;;;;;;16.07;11.50;;;;;;;3.66;61.78;96511.59;4990615;28;20220;-72
2024/01/29 03:42:54;;;;;;;16.43;11.57;;;;;;;3.61;62.02;96506.63;4999890;28;20335;-72
2024/01/29 03:45:19;;;;;;;16.47;12.37;;;;;;;3.49;62.85;96513.22;4980379;28;20315;-72
2024/01/29 03:47:44;;;;;;;16.77;12.53;;;;;;;3.31;63.05;96516.69;4994987;28;20232;-72
2024/01/29 03:50:10;;;;;;;16.70;13.17;;;;;;;3.18;63.56;96512.97;5003744;28;20217;-72
2024/01/29 03:52:35;;;;;;;16.53;12.50;;;;;;;3.30;63.02;96509.81;4992215;28;20219;-72
2024/01/29 03:55:01;;;;;;;12.53;11.07;;;;;;;3.38;62.59;96517.25;4998804;28;20239;-72
2024/01/29 03:57:26;;;;;;;13.43;11.40;;;;;;;3.34;62.85;96513.94;5000679;28;20255;-73
2024/01/29 03:59:56;;;;;;;14.73;12.87;;;;;;;3.33;62.96;96516.63;5012609;28;20254;-73
2024/01/29 04:02:21;;;;;;;15.23;12.83;;;;;;;3.45;62.81;96510.88;4996526;28;20195;-73
2024/01/29 04:04:48;;;;;;;14.80;11.73;;;;;;;3.38;63.00;96510.28;4997307;28;20287;-72
2024/01/29 04:07:14;;;;;;;15.70;11.90;;;;;;;3.46;62.69;96507.34;4997439;28;20219;-73
2024/01/29 04:09:39;;;;;;;14.63;12.03;;;;;;;3.58;62.51;96506.75;4994189;28;20283;-72
2024/01/29 04:12:05;;;;;;;14.00;11.80;;;;;;;3.59;62.18;96507.63;4990332;28;20318;-73
2024/01/29 04:14:30;;;;;;;15.03;12.77;;;;;;;3.49;62.57;96515.84;4988432;28;20243;-73
2024/01/29 04:16:56;;;;;;;16.27;12.77;;;;;;;3.49;62.40;96508.03;4982322;28;20187;-72
2024/01/29 04:19:21;;;;;;;18.27;12.30;;;;;;;3.60;62.12;96517.09;4984509;28;20226;-72
2024/01/29 04:21:47;;;;;;;17.00;12.93;;;;;;;3.56;62.30;96513.81;4988247;28;20220;-72
2024/01/29 04:24:12;;;;;;;14.73;11.03;;;;;;;3.72;61.80;96517.34;4985335;28;20231;-72
2024/01/29 04:26:41;;;;;;;14.07;10.73;;;;;;;3.59;62.16;96523.22;4981252;28;20219;-73
2024/01/29 04:29:08;;;;;;;15.73;11.20;;;;;;;3.56;61.99;96528.56;4989089;28;20191;-73
2024/01/29 04:31:35;;;;;;;11.47;9.40;;;;;;;3.50;62.14;96517.53;4987246;28;20239;-73
2024/01/29 04:34:01;;;;;;;12.63;9.87;;;;;;;3.30;62.49;96518.44;4987635;28;20230;-73
2024/01/29 04:36:26;;;;;;;11.40;9.27;;;;;;;3.41;62.16;96533.56;4989338;28;20224;-73
2024/01/29 04:38:52;;;;;;;11.70;9.63;;;;;;;3.51;62.08;96534.81;4998855;28;20234;-73
2024/01/29 04:41:18;;;;;;;10.63;9.07;;;;;;;3.59;61.42;96529.25;4990625;28;20183;-74
2024/01/29 04:43:44;;;;;;;10.43;8.23;;;;;;;3.45;61.64;96535.09;5002474;28;20198;-74
2024/01/29 04:46:09;;;;;;;10.23;7.80;;;;;;;3.48;61.19;96532.38;4982987;28;20215;-72
2024/01/29 04:48:35;;;;;;;9.73;7.73;;;;;;;3.46;60.99;96536.78;4989764;28;20279;-73
2024/01/29 04:51:04;;;;;;;8.67;7.77;;;;;;;3.31;62.04;96540.94;4992202;28;20234;-72
2024/01/29 04:53:30;;;;;;;10.40;8.03;;;;;;;3.25;61.73;96545.56;4985541;28;20183;-73
2024/01/29 04:55:56;;;;;;;12.60;8.10;;;;;;;3.46;60.92;96549.78;4987723;28;20196;-72
2024/01/29 04:58:21;;;;;;;11.03;8.27;;;;;;;3.37;61.30;96549.34;4987421;28;20230;-73
2024/01/29 05:00:47;;;;;;;10.67;8.00;;;;;;;3.52;61.40;96566.88;5008816;28;20227;-75
2024/01/29 05:03:12;;;;;;;9.40;8.20;;;;;;;3.47;61.22;96566.22;5004949;28;20227;-75
2024/01/29 05:05:37;;;;;;;10.13;8.47;;;;;;;3.42;61.47;96566.47;4991409;28;20307;-74
2024/01/29 05:08:03;;;;;;;10.23;8.40;;;;;;;3.50;61.34;96571.28;4985657;28;20220;-74
2024/01/29 05:10:29;;;;;;;11.60;8.20;;;;;;;3.40;61.06;96568.28;4991746;28;20226;-73
2024/01/29 05:12:54;;;;;;;12.77;8.43;;;;;;;3.33;61.45;96560.81;4995415;28;20592;-72
2024/01/29 05:15:20;;;;;;;11.43;9.17;;;;;;;3.58;60.68;96581.34;4983858;28;20278;-73
2024/01/29 05:17:45;;;;;;;10.47;9.47;;;;;;;3.51;60.89;96579.03;4988205;28;20245;-73
2024/01/29 05:20:11;;;;;;;10.13;9.20;;;;;;;3.60;60.94;96576.91;4989196;28;20282;-71
2024/01/29 05:22:36;;;;;;;10.83;8.17;;;;;;;3.57;60.58;96572.69;4988115;28;20234;-73
2024/01/29 05:25:02;;;;;;;10.60;7.90;;;;;;;3.66;60.38;96576.63;4986843;28;20234;-73
2024/01/29 05:27:28;;;;;;;8.97;7.37;;;;;;;3.50;60.51;96574.75;4981500;28;20227;-73
2024/01/29 05:29:53;;;;;;;8.23;7.10;;;;;;;3.51;60.86;96581.63;4979260;28;20311;-73
2024/01/29 05:32:19;;;;;;;8.77;6.87;;;;;;;3.52;60.72;96578.09;4975532;28;20212;-72
2024/01/29 05:34:45;;;;;;;9.83;7.70;;;;;;;3.28;61.21;96574.88;5011899;28;20219;-74
2024/01/29 05:37:10;;;;;;;9.73;7.93;;;;;;;3.31;61.29;96573.88;4993042;28;20215;-74
2024/01/29 05:39:36;;;;;;;9.03;7.97;;;;;;;3.21;61.60;96573.47;5001875;28;20234;-73
2024/01/29 05:42:01;;;;;;;10.23;7.90;;;;;;;3.27;61.14;96581.00;4997164;28;20239;-75
2024/01/29 05:44:27;;;;;;;11.20;7.93;;;;;;;3.22;61.49;96584.72;5000659;28;20237;-73
2024/01/29 05:46:52;;;;;;;8.47;7.57;;;;;;;3.26;61.13;96583.63;5011687;28;20183;-73
2024/01/29 05:49:18;;;;;;;12.20;8.03;;;;;;;3.36;61.34;96590.13;4995164;28;20303;-74
2024/01/29 05:51:44;;;;;;;9.53;7.47;;;;;;;3.34;61.28;96586.72;4994079;28;20235;-74
2024/01/29 05:54:09;;;;;;;9.17;8.17;;;;;;;3.37;61.22;96580.56;4988661;28;20223;-77
2024/01/29 05:56:40;;;;;;;11.60;8.47;;;;;;;3.56;60.82;96601.41;4994157;28;20191;-72
2024/01/29 05:59:05;;;;;;;11.77;8.23;;;;;;;3.36;60.96;96594.47;4995600;28;20194;-73
2024/01/29 06:01:31;;;;;;;10.87;7.97;;;;;;;3.23;61.66;96604.56;5007623;28;20222;-73
2024/01/29 06:03:56;;;;;;;13.53;9.17;;;;;;;3.28;61.68;96602.63;4990207;28;20246;-73
2024/01/29 06:06:21;;;;;;;11.97;9.27;;;;;;;3.32;61.03;96593.78;4994365;28;20251;-73
2024/01/29 06:08:47;;;;;;;12.70;9.20;;;;;;;3.49;60.68;96595.63;4993252;28;20252;-73
2024/01/29 06:11:12;;;;;;;11.77;8.73;;;;;;;3.36;61.12;96600.53;4987656;28;20238;-74
2024/01/29 06:13:38;;;;;;;10.57;9.00;;;;;;;3.45;60.88;96601.88;4984830;28;20669;-74
2024/01/29 06:16:04;;;;;;;13.33;8.70;;;;;;;3.51;60.95;96602.44;4993119;28;20250;-73
2024/01/29 06:18:30;;;;;;;10.57;8.63;;;;;;;3.30;61.46;96600.81;4989651;28;20227;-77
2024/01/29 06:20:55;;;;;;;11.17;9.43;;;;;;;3.34;61.61;96602.34;4986888;28;20254;-77
2024/01/29 06:23:21;;;;;;;11.57;10.03;;;;;;;3.40;61.29;96596.03;4993417;28;20307;-78
2024/01/29 06:25:46;;;;;;;11.93;9.70;;;;;;;3.54;60.74;96602.28;4994942;28;20259;-79
2024/01/29 06:28:11;;;;;;;13.17;10.03;;;;;;;3.37;60.98;96606.56;4987316;28;20310;-78
2024/01/29 06:30:37;;;;;;;12.77;9.53;;;;;;;3.42;60.58;96610.66;5006944;28;20227;-77
2024/01/29 06:33:03;;;;;;;10.10;8.60;;;;;;;3.50;60.81;96612.91;5011232;28;20300;-78
2024/01/29 06:35:28;;;;;;;11.10;9.13;;;;;;;3.50;60.21;96612.91;4992178;28;20199;-79
2024/01/29 06:37:53;;;;;;;12.90;9.63;;;;;;;3.43;60.58;96609.75;5003504;28;20191;-79
2024/01/29 06:40:22;;;;;;;13.17;8.43;;;;;;;3.44;60.46;96619.22;5010076;28;20233;-78
2024/01/29 06:42:48;;;;;;;11.30;9.10;;;;;;;3.67;59.75;96625.16;5007583;28;20231;-77
2024/01/29 06:45:13;;;;;;;13.07;8.53;;;;;;;3.62;59.65;96627.13;5011803;28;20224;-78
2024/01/29 06:47:39;;;;;;;9.93;7.97;;;;;;;3.67;59.33;96626.00;5012301;28;20302;-76
2024/01/29 06:50:04;;;;;;;10.47;8.43;;;;;;;3.75;59.05;96630.84;5009338;28;20282;-77
2024/01/29 06:52:30;;;;;;;11.23;8.57;;;;;;;3.54;59.98;96619.66;5010082;28;20219;-77
2024/01/29 06:54:55;;;;;;;10.20;8.43;;;;;;;3.73;59.31;96630.06;5006005;28;20256;-77
2024/01/29 06:57:21;;;;;;;14.50;8.70;;;;;;;3.78;59.09;96633.31;5017249;28;20245;-78
2024/01/29 06:59:46;;;;;;;10.23;8.07;;;;;;;3.67;59.29;96626.00;5014507;28;20226;-78
2024/01/29 07:02:12;;;;;;;10.00;8.07;;;;;;;3.63;58.97;96623.59;5001776;28;20246;-76
2024/01/29 07:04:37;;;;;;;9.43;7.67;;;;;;;3.60;58.65;96624.56;5009382;28;20700;-78
2024/01/29 07:07:03;;;;;;;12.90;7.93;;;;;;;3.60;58.80;96621.97;5014440;28;20219;-78
2024/01/29 07:09:31;;;;;;;9.67;7.50;;;;;;;3.82;58.18;96627.03;4989876;28;20257;-75
2024/01/29 07:11:57;;;;;;;8.50;7.20;;;;;;;3.63;58.22;96618.38;5007910;28;20242;-77
2024/01/29 07:14:22;;;;;;;8.03;7.23;;;;;;;3.61;57.98;96620.22;5004922;28;20198;-77
2024/01/29 07:16:48;;;;;;;8.53;7.40;;;;;;;3.80;57.81;96615.88;5022108;28;20211;-77
2024/01/29 07:19:13;;;;;;;11.70;7.97;;;;;;;3.68;57.91;96619.88;5001415;28;20319;-78
2024/01/29 07:21:41;;;;;;;8.83;7.40;;;;;;;4.00;55.54;96621.91;5007391;28;20229;-78
2024/01/29 07:24:07;;;;;;;10.07;7.27;;;;;;;3.70;56.85;96615.44;5008196;28;20261;-78
2024/01/29 07:26:33;;;;;;;8.37;7.20;;;;;;;3.75;56.62;96625.66;5001100;28;20215;-75
2024/01/29 07:28:58;;;;;;;8.83;7.30;;;;;;;3.43;56.69;96622.75;5011292;28;20317;-78
2024/01/29 07:31:25;;;;;;;7.13;5.93;;;;;;;3.59;55.79;96622.91;5002588;28;20231;-79
2024/01/29 07:33:50;;;;;;;9.50;7.27;;;;;;;3.61;55.48;96622.81;5011732;28;20309;-81
2024/01/29 07:36:16;;;;;;;7.33;5.80;;;;;;;3.80;54.90;96630.66;5000406;28;20229;-79
2024/01/29 07:38:41;;;;;;;7.93;6.27;;;;;;;3.92;54.03;96630.91;5014977;28;20260;-77
2024/01/29 07:41:07;;;;;;;7.03;6.13;;;;;;;4.04;53.89;96623.44;5013525;28;20206;-77
2024/01/29 07:43:32;;;;;;;7.90;6.30;;;;;;;4.07;53.52;96618.09;5008154;28;20219;-80
2024/01/29 07:45:58;;;;;;;7.87;6.63;;;;;;;4.05;53.28;96627.72;5005235;28;20222;-78
2024/01/29 07:48:24;;;;;;;8.83;5.83;;;;;;;4.19;52.81;96627.91;4997720;28;20346;-76
2024/01/29 07:50:49;;;;;;;8.63;5.70;;;;;;;4.15;52.63;96629.00;5013674;28;20226;-76
2024/01/29 07:53:14;;;;;;;7.33;6.23;;;;;;;4.14;52.15;96627.28;5013961;28;20218;-77
2024/01/29 07:55:40;;;;;;;5.97;5.37;;;;;;;4.25;51.78;96637.19;5005475;28;20223;-77
2024/01/29 07:58:05;;;;;;;6.30;5.30;;;;;;;4.26;51.82;96631.06;5005097;28;20222;-80
2024/01/29 08:00:31;;;;;;;6.60;5.47;;;;;;;4.30;50.57;96628.22;5006636;28;20227;-78
2024/01/29 08:02:56;;;;;;;7.57;5.40;;;;;;;4.32;50.10;96626.41;5006718;28;20286;-78
2024/01/29 08:05:22;;;;;;;6.80;5.50;;;;;;;4.15;50.66;96627.22;5002193;28;20285;-78
2024/01/29 08:07:47;;;;;;;6.43;5.57;;;;;;;4.18;50.31;96632.28;5012537;28;20211;-77
2024/01/29 08:10:12;;;;;;;11.23;6.13;;;;;;;4.16;51.01;96635.88;5012634;28;20285;-78
2024/01/29 08:12:38;;;;;;;8.77;4.63;;;;;;;4.24;49.86;96638.94;5012139;28;20226;-82
2024/01/29 08:15:05;;;;;;;6.50;4.20;;;;;;;4.17;49.85;96629.72;5007713;28;20231;-77
2024/01/29 08:17:31;;;;;;;5.43;4.73;;;;;;;4.35;49.63;96638.44;5019236;28;20191;-81
2024/01/29 08:19:56;;;;;;;8.90;5.53;;;;;;;4.34;50.44;96647.19;5014741;28;20194;-74
2024/01/29 08:22:22;;;;;;;10.47;5.40;;;;;;;4.33;49.89;96651.53;5012608;28;20219;-79
2024/01/29 08:24:48;;;;;;;6.10;4.83;;;;;;;4.19;49.17;96652.19;5013987;28;20303;-76
2024/01/29 08:27:14;;;;;;;7.87;5.70;;;;;;;4.12;50.53;96657.78;4978858;28;20314;-68
2024/01/29 08:29:39;;;;;;;8.00;6.03;;;;;;;4.40;49.35;96663.34;5001223;28;20223;-70
2024/01/29 08:32:05;;;;;;;7.77;5.73;;;;;;;4.49;49.30;96667.28;5003566;28;20211;-71
2024/01/29 08:34:30;;;;;;;7.50;5.80;;;;;;;4.60;48.89;96659.78;5025490;28;20227;-68
2024/01/29 08:36:56;;;;;;;10.43;5.80;;;;;;;4.55;49.46;96673.94;4998304;28;20222;-72
2024/01/29 08:39:22;;;;;;;6.93;4.27;;;;;;;4.75;48.59;96672.97;5003839;28;20242;-69
2024/01/29 08:41:48;;;;;;;5.47;3.50;;;;;;;4.78;47.38;96667.59;5010389;28;20226;-71
2024/01/29 08:44:13;;;;;;;8.07;4.00;;;;;;;4.94;46.72;96683.31;5012645;28;20199;-76
2024/01/29 08:46:39;;;;;;;4.57;3.50;;;;;;;4.96;46.45;96681.50;5006436;28;20230;-73
2024/01/29 08:49:04;;;;;;;4.40;3.10;;;;;;;4.99;45.00;96676.94;5004768;28;20230;-79
2024/01/29 08:51:30;;;;;;;5.67;3.70;;;;;;;5.11;44.83;96679.88;5011612;28;20227;-72
2024/01/29 08:53:58;;;;;;;6.90;5.07;;;;;;;5.07;45.87;96673.97;5013866;28;20242;-71
2024/01/29 08:56:23;;;;;;;7.03;5.10;;;;;;;5.09;46.06;96677.34;5007952;28;20244;-75
2024/01/29 08:58:49;;;;;;;6.27;4.53;;;;;;;4.93;46.14;96682.47;5008924;28;20186;-74
2024/01/29 09:01:14;;;;;;;9.77;5.27;;;;;;;4.99;46.09;96674.34;5003912;28;20230;-73
2024/01/29 09:03:40;;;;;;;6.37;4.73;;;;;;;4.93;46.83;96672.06;5001536;28;20250;-74
2024/01/29 09:06:05;;;;;;;7.90;5.20;;;;;;;5.02;46.74;96670.75;5005414;28;20229;-71
2024/01/29 09:08:31;;;;;;;7.80;5.93;;;;;;;5.02;46.34;96687.22;5007401;28;20199;-70
2024/01/29 09:10:56;;;;;;;12.40;6.93;;;;;;;5.01;46.70;96677.72;5011059;28;20239;-68
2024/01/29 09:13:22;;;;;;;9.83;7.73;;;;;;;5.22;45.36;96678.41;5003146;28;20306;-70
2024/01/29 09:15:47;;;;;;;11.97;9.20;;;;;;;5.03;46.11;96680.28;5007846;28;20310;-71
2024/01/29 09:18:13;;;;;;;10.57;8.13;;;;;;;4.99;46.81;96676.13;5002802;28;20322;-71
2024/01/29 09:20:38;;;;;;;7.17;6.40;;;;;;;5.14;45.43;96671.91;5010911;28;20227;-73
2024/01/29 09:23:04;;;;;;;6.03;4.20;;;;;;;5.33;44.66;96674.41;5013799;28;20187;-78
2024/01/29 09:25:30;;;;;;;5.70;4.20;;;;;;;5.32;44.55;96676.19;5012489;28;20298;-74
2024/01/29 09:27:55;;;;;;;4.93;4.43;;;;;;;5.43;44.18;96670.41;5007699;28;20815;-76
2024/01/29 09:30:21;;;;;;;5.23;4.40;;;;;;;5.25;44.96;96673.03;5011158;28;20299;-76
2024/01/29 09:32:46;;;;;;;4.43;3.97;;;;;;;5.35;44.17;96659.53;5006926;28;20264;-75
2024/01/29 09:35:11;;;;;;;5.13;4.00;;;;;;;5.37;43.91;96658.50;5009550;28;20195;-75
2024/01/29 09:37:39;;;;;;;5.73;3.87;;;;;;;5.22;43.89;96662.75;5008194;28;20231;-73
2024/01/29 09:40:05;;;;;;;6.23;4.17;;;;;;;5.06;44.21;96667.06;5012363;28;20277;-76
2024/01/29 09:42:33;;;;;;;6.00;4.63;;;;;;;5.34;43.60;96668.25;5009631;28;20230;-75
2024/01/29 09:44:59;;;;;;;5.47;3.70;;;;;;;5.31;43.15;96670.09;5014874;28;20227;-76
2024/01/29 09:47:27;;;;;;;6.30;4.27;;;;;;;5.39;42.79;96654.06;4994941;28;20206;-75
2024/01/29 09:49:54;;;;;;;5.67;3.97;;;;;;;5.24;42.87;96653.09;5005226;28;20282;-76
2024/01/29 09:52:21;;;;;;;4.80;3.50;;;;;;;5.31;42.75;96651.00;5015399;28;20222;-73
2024/01/29 09:54:50;;;;;;;4.30;3.20;;;;;;;5.30;42.87;96644.13;5007226;28;20219;-75
2024/01/29 09:57:15;;;;;;;5.03;3.20;;;;;;;5.27;42.57;96650.34;5002288;28;20215;-80
2024/01/29 09:59:41;;;;;;;3.97;3.37;;;;;;;5.39;42.55;96658.44;5005753;28;20227;-82
2024/01/29 10:02:09;;;;;;;7.70;4.27;;;;;;;5.46;42.18;96658.03;5006856;28;20221;-82
2024/01/29 10:04:35;;;;;;;7.47;5.27;;;;;;;5.44;42.66;96661.66;5006972;28;20219;-80
2024/01/29 10:07:00;;;;;;;5.13;3.53;;;;;;;5.23;43.38;96648.78;5018087;28;20246;-75
2024/01/29 10:09:28;;;;;;;3.97;3.30;;;;;;;5.31;43.29;96656.22;5007668;28;20284;-76
2024/01/29 10:11:53;;;;;;;4.93;3.77;;;;;;;5.33;43.27;96653.53;5006346;28;20230;-78
2024/01/29 10:14:19;;;;;;;5.23;3.43;;;;;;;5.42;42.94;96650.44;5007084;28;20184;-78
2024/01/29 10:16:47;;;;;;;6.20;3.63;;;;;;;5.26;43.08;96651.22;5002690;28;20242;-78
2024/01/29 10:19:14;;;;;;;5.17;3.30;;;;;;;5.39;42.74;96651.44;5009703;28;20225;-78
2024/01/29 10:21:42;;;;;;;5.13;3.30;;;;;;;5.36;43.13;96656.00;5003565;28;20243;-79
2024/01/29 10:24:15;;;;;;;4.53;3.37;;;;;;;5.36;42.69;96650.78;5004920;28;20231;-78
2024/01/29 10:26:42;;;;;;;7.10;3.20;;;;;;;5.40;42.40;96655.75;5006860;28;20188;-78
2024/01/29 10:29:09;;;;;;;3.87;3.20;;;;;;;5.39;42.13;96653.22;5010740;28;20193;-73
2024/01/29 10:31:35;;;;;;;3.67;2.90;;;;;;;5.31;42.00;96645.78;5018023;28;20273;-74
2024/01/29 10:34:02;;;;;;;2.70;2.50;;;;;;;5.38;41.40;96647.16;5010702;28;20218;-73
2024/01/29 10:36:27;;;;;;;3.73;3.00;;;;;;;5.01;42.48;96638.63;5007679;28;20245;-79
2024/01/29 10:38:54;;;;;;;5.70;3.00;;;;;;;5.17;42.64;96641.28;5011754;28;20243;-78
2024/01/29 10:41:22;;;;;;;5.10;3.57;;;;;;;5.26;42.56;96651.22;5013911;28;20258;-77
2024/01/29 10:43:49;;;;;;;3.50;2.77;;;;;;;5.37;42.40;96645.47;5002627;28;20250;-78
2024/01/29 10:46:22;;;;;;;6.50;3.10;;;;;;;5.47;41.99;96638.00;5013368;28;20214;-77
2024/01/29 10:48:49;;;;;;;8.27;3.40;;;;;;;5.51;41.82;96640.38;5006140;28;20227;-79
2024/01/29 10:51:16;;;;;;;2.60;2.37;;;;;;;5.45;41.77;96635.50;5013113;28;20322;-79
2024/01/29 10:53:43;;;;;;;6.03;2.73;;;;;;;5.53;41.70;96635.06;5013659;28;20207;-77
2024/01/29 10:56:10;;;;;;;4.30;2.83;;;;;;;5.44;41.68;96635.56;5014829;28;20194;-79
2024/01/29 10:58:36;;;;;;;2.97;2.40;;;;;;;5.58;41.47;96635.66;5011097;28;20314;-77
2024/01/29 11:01:03;;;;;;;3.37;2.60;;;;;;;5.68;41.12;96626.44;5010218;28;20313;-78
2024/01/29 11:03:29;;;;;;;3.07;2.37;;;;;;;5.70;40.82;96626.34;5006296;28;20227;-70
2024/01/29 11:06:44;;;;;;;3.53;2.30;;;;;;;5.47;41.21;96623.19;5010044;28;20234;-74
2024/01/29 11:09:14;;;;;;;3.43;2.60;;;;;;;5.67;40.86;96619.53;4943542;28;20325;-78
2024/01/29 11:11:44;;;;;;;5.50;2.57;;;;;;;5.58;40.46;96625.22;4945340;29;20225;-77
2024/01/29 11:14:09;;;;;;;2.93;2.37;;;;;;;5.63;40.18;96618.00;4938372;29;20256;-79
2024/01/29 11:16:35;;;;;;;4.90;2.50;;;;;;;5.43;40.50;96616.47;4943556;28;20235;-73
2024/01/29 11:19:02;;;;;;;3.47;2.97;;;;;;;5.43;40.63;96602.59;4934771;29;20300;-73
2024/01/29 11:21:28;;;;;;;2.20;1.90;;;;;;;5.52;40.61;96613.34;4934414;29;20232;-77
2024/01/29 11:23:56;;;;;;;2.83;2.40;;;;;;;5.54;40.70;96610.69;4932093;29;20233;-74
2024/01/29 11:26:25;;;;;;;2.73;2.10;;;;;;;5.61;40.20;96598.13;4936629;29;20197;-72
2024/01/29 11:29:19;;;;;;;3.03;2.03;;;;;;;5.61;39.95;96595.53;4935397;29;20289;-70
2024/01/29 11:31:45;;;;;;;5.10;2.60;;;;;;;5.61;39.72;96593.75;4940730;28;20237;-73
2024/01/29 11:34:13;;;;;;;12.90;2.20;;;;;;;5.54;40.20;96597.63;4931079;29;20244;-71